sensor_id;sensor_type;location;lat;lon;timestamp;temperature;humidity
8664;DHT22;4369;47.842;13.096;2023-05-18T00:00:41;8.80;99.90
8664;DHT22;4369;47.842;13.096;2023-05-18T00:03:10;8.80;99.90
8664;DHT22;4369;47.842;13.096;2023-05-18T00:05:37;8.70;99.90
8664;DHT22;4369;47.842;13.096;2023-05-18T00:08:04;8.80;99.90
8664;DHT22;4369;47.842;13.096;2023-05-18T00:10:31;8.80;99.90
8664;DHT22;4369;47.842;13.096;2023-05-18T00:12:58;8.80;99.90
8664;DHT22;4369;47.842;13.096;2023-05-18T00:15:25;8.80;99.90
8664;DHT22;4369;47.842;13.096;2023-05-18T00:17:52;8.80;99.90
8664;DHT22;4369;47.842;13.096;2023-05-18T00:20:20;8.80;99.90
8664;DHT22;4369;47.842;13.096;2023-05-18T00:22:51;8.70;99.90
8664;DHT22;4369;47.842;13.096;2023-05-18T00:25:18;8.70;99.90
8664;DHT22;4369;47.842;13.096;2023-05-18T00:27:45;8.80;99.90
8664;DHT22;4369;47.842;13.096;2023-05-18T00:30:14;8.90;99.90
8664;DHT22;4369;47.842;13.096;2023-05-18T00:32:41;8.90;99.90
8664;DHT22;4369;47.842;13.096;2023-05-18T00:35:08;8.80;99.90
8664;DHT22;4369;47.842;13.096;2023-05-18T00:37:36;8.80;99.90
8664;DHT22;4369;47.842;13.096;2023-05-18T00:40:07;8.80;99.90
8664;DHT22;4369;47.842;13.096;2023-05-18T00:42:34;8.70;99.90
8664;DHT22;4369;47.842;13.096;2023-05-18T00:45:01;8.70;99.90
8664;DHT22;4369;47.842;13.096;2023-05-18T00:47:28;8.70;99.90
8664;DHT22;4369;47.842;13.096;2023-05-18T00:49:55;8.60;99.90
8664;DHT22;4369;47.842;13.096;2023-05-18T00:52:22;8.50;99.90
8664;DHT22;4369;47.842;13.096;2023-05-18T00:54:52;8.50;99.90
8664;DHT22;4369;47.842;13.096;2023-05-18T00:57:19;8.60;99.90
8664;DHT22;4369;47.842;13.096;2023-05-18T00:59:46;8.70;99.90
8664;DHT22;4369;47.842;13.096;2023-05-18T01:02:14;8.70;99.90
8664;DHT22;4369;47.842;13.096;2023-05-18T01:04:41;8.80;99.90
8664;DHT22;4369;47.842;13.096;2023-05-18T01:07:09;8.70;99.90
8664;DHT22;4369;47.842;13.096;2023-05-18T01:09:37;8.70;99.90
8664;DHT22;4369;47.842;13.096;2023-05-18T01:12:16;8.60;99.90
8664;DHT22;4369;47.842;13.096;2023-05-18T01:14:50;8.70;99.90
8664;DHT22;4369;47.842;13.096;2023-05-18T01:17:24;8.60;99.90
8664;DHT22;4369;47.842;13.096;2023-05-18T01:20:07;8.60;99.90
8664;DHT22;4369;47.842;13.096;2023-05-18T01:25:32;8.60;99.90
8664;DHT22;4369;47.842;13.096;2023-05-18T01:28:06;8.70;99.90
8664;DHT22;4369;47.842;13.096;2023-05-18T01:30:37;8.70;99.90
8664;DHT22;4369;47.842;13.096;2023-05-18T01:33:06;8.70;99.90
8664;DHT22;4369;47.842;13.096;2023-05-18T01:35:34;8.60;99.90
8664;DHT22;4369;47.842;13.096;2023-05-18T01:38:01;8.60;99.90
8664;DHT22;4369;47.842;13.096;2023-05-18T01:40:32;8.60;99.90
8664;DHT22;4369;47.842;13.096;2023-05-18T01:43:08;8.60;99.90
8664;DHT22;4369;47.842;13.096;2023-05-18T01:45:39;8.60;99.90
8664;DHT22;4369;47.842;13.096;2023-05-18T01:48:08;8.60;99.90
8664;DHT22;4369;47.842;13.096;2023-05-18T01:50:38;8.60;99.90
8664;DHT22;4369;47.842;13.096;2023-05-18T01:53:13;8.60;99.90
8664;DHT22;4369;47.842;13.096;2023-05-18T01:55:43;8.50;99.90
8664;DHT22;4369;47.842;13.096;2023-05-18T01:58:13;8.50;99.90
8664;DHT22;4369;47.842;13.096;2023-05-18T02:00:40;8.40;99.90
8664;DHT22;4369;47.842;13.096;2023-05-18T02:03:07;8.50;99.90
8664;DHT22;4369;47.842;13.096;2023-05-18T02:05:34;8.50;99.90
8664;DHT22;4369;47.842;13.096;2023-05-18T02:08:01;8.50;99.90
8664;DHT22;4369;47.842;13.096;2023-05-18T02:10:28;8.40;99.90
8664;DHT22;4369;47.842;13.096;2023-05-18T02:12:55;8.40;99.90
8664;DHT22;4369;47.842;13.096;2023-05-18T02:15:23;8.40;99.90
8664;DHT22;4369;47.842;13.096;2023-05-18T02:17:50;8.40;99.90
8664;DHT22;4369;47.842;13.096;2023-05-18T02:20:17;8.40;99.90
8664;DHT22;4369;47.842;13.096;2023-05-18T02:22:44;8.30;99.90
8664;DHT22;4369;47.842;13.096;2023-05-18T02:25:11;8.30;99.90
8664;DHT22;4369;47.842;13.096;2023-05-18T02:27:38;8.30;99.90
8664;DHT22;4369;47.842;13.096;2023-05-18T02:30:06;8.30;99.90
8664;DHT22;4369;47.842;13.096;2023-05-18T02:32:34;8.40;99.90
8664;DHT22;4369;47.842;13.096;2023-05-18T02:35:04;8.30;99.90
8664;DHT22;4369;47.842;13.096;2023-05-18T02:37:31;8.40;99.90
8664;DHT22;4369;47.842;13.096;2023-05-18T02:40:05;8.40;99.90
8664;DHT22;4369;47.842;13.096;2023-05-18T02:42:33;8.40;99.90
8664;DHT22;4369;47.842;13.096;2023-05-18T02:45:01;8.50;99.90
8664;DHT22;4369;47.842;13.096;2023-05-18T02:47:28;8.50;99.90
8664;DHT22;4369;47.842;13.096;2023-05-18T02:49:56;8.50;99.90
8664;DHT22;4369;47.842;13.096;2023-05-18T02:52:23;8.50;99.90
8664;DHT22;4369;47.842;13.096;2023-05-18T02:54:50;8.50;99.90
8664;DHT22;4369;47.842;13.096;2023-05-18T02:57:19;8.50;99.90
8664;DHT22;4369;47.842;13.096;2023-05-18T02:59:46;8.50;99.90
8664;DHT22;4369;47.842;13.096;2023-05-18T03:02:13;8.50;99.90
8664;DHT22;4369;47.842;13.096;2023-05-18T03:04:40;8.50;99.90
8664;DHT22;4369;47.842;13.096;2023-05-18T03:07:08;8.60;99.90
8664;DHT22;4369;47.842;13.096;2023-05-18T03:09:36;8.50;99.90
8664;DHT22;4369;47.842;13.096;2023-05-18T03:12:03;8.50;99.90
8664;DHT22;4369;47.842;13.096;2023-05-18T03:14:30;8.50;99.90
8664;DHT22;4369;47.842;13.096;2023-05-18T03:16:57;8.50;99.90
8664;DHT22;4369;47.842;13.096;2023-05-18T03:19:24;8.60;99.90
8664;DHT22;4369;47.842;13.096;2023-05-18T03:21:52;8.60;99.90
8664;DHT22;4369;47.842;13.096;2023-05-18T03:24:21;8.50;99.90
8664;DHT22;4369;47.842;13.096;2023-05-18T03:26:50;8.60;99.90
8664;DHT22;4369;47.842;13.096;2023-05-18T03:29:19;8.50;99.90
8664;DHT22;4369;47.842;13.096;2023-05-18T03:31:46;8.60;99.90
8664;DHT22;4369;47.842;13.096;2023-05-18T03:34:15;8.60;99.90
8664;DHT22;4369;47.842;13.096;2023-05-18T03:36:42;8.50;99.90
8664;DHT22;4369;47.842;13.096;2023-05-18T03:39:12;8.50;99.90
8664;DHT22;4369;47.842;13.096;2023-05-18T03:41:40;8.40;99.90
8664;DHT22;4369;47.842;13.096;2023-05-18T03:44:07;8.40;99.90
8664;DHT22;4369;47.842;13.096;2023-05-18T03:46:34;8.50;99.90
8664;DHT22;4369;47.842;13.096;2023-05-18T03:49:01;8.50;99.90
8664;DHT22;4369;47.842;13.096;2023-05-18T03:51:29;8.40;99.90
8664;DHT22;4369;47.842;13.096;2023-05-18T03:53:56;8.50;99.90
8664;DHT22;4369;47.842;13.096;2023-05-18T03:56:23;8.40;99.90
8664;DHT22;4369;47.842;13.096;2023-05-18T03:58:52;8.40;99.90
8664;DHT22;4369;47.842;13.096;2023-05-18T04:01:19;8.50;99.90
8664;DHT22;4369;47.842;13.096;2023-05-18T04:03:48;8.50;99.90
8664;DHT22;4369;47.842;13.096;2023-05-18T04:06:15;8.50;99.90
8664;DHT22;4369;47.842;13.096;2023-05-18T04:08:42;8.50;99.90
8664;DHT22;4369;47.842;13.096;2023-05-18T04:11:11;8.50;99.90
8664;DHT22;4369;47.842;13.096;2023-05-18T04:13:37;8.50;99.90
8664;DHT22;4369;47.842;13.096;2023-05-18T04:16:06;8.50;99.90
8664;DHT22;4369;47.842;13.096;2023-05-18T04:18:35;8.50;99.90
8664;DHT22;4369;47.842;13.096;2023-05-18T04:21:02;8.50;99.90
8664;DHT22;4369;47.842;13.096;2023-05-18T04:23:30;8.60;99.90
8664;DHT22;4369;47.842;13.096;2023-05-18T04:25:58;8.60;99.90
8664;DHT22;4369;47.842;13.096;2023-05-18T04:28:25;8.60;99.90
8664;DHT22;4369;47.842;13.096;2023-05-18T04:30:53;8.60;99.90
8664;DHT22;4369;47.842;13.096;2023-05-18T04:33:21;8.70;99.90
8664;DHT22;4369;47.842;13.096;2023-05-18T04:35:49;8.80;99.90
8664;DHT22;4369;47.842;13.096;2023-05-18T04:38:19;8.80;99.90
8664;DHT22;4369;47.842;13.096;2023-05-18T04:40:48;8.90;99.90
8664;DHT22;4369;47.842;13.096;2023-05-18T04:43:16;8.90;99.90
8664;DHT22;4369;47.842;13.096;2023-05-18T04:45:43;8.90;99.90
8664;DHT22;4369;47.842;13.096;2023-05-18T04:48:11;8.90;99.90
8664;DHT22;4369;47.842;13.096;2023-05-18T04:50:40;8.90;99.90
8664;DHT22;4369;47.842;13.096;2023-05-18T04:53:07;8.90;99.90
8664;DHT22;4369;47.842;13.096;2023-05-18T04:55:37;8.90;99.90
8664;DHT22;4369;47.842;13.096;2023-05-18T04:58:03;8.90;99.90
8664;DHT22;4369;47.842;13.096;2023-05-18T05:00:30;9.00;99.90
8664;DHT22;4369;47.842;13.096;2023-05-18T05:02:58;9.00;99.90
8664;DHT22;4369;47.842;13.096;2023-05-18T05:05:25;9.10;99.90
8664;DHT22;4369;47.842;13.096;2023-05-18T05:07:53;9.20;99.90
8664;DHT22;4369;47.842;13.096;2023-05-18T05:10:20;9.10;99.90
8664;DHT22;4369;47.842;13.096;2023-05-18T05:12:48;9.20;99.90
8664;DHT22;4369;47.842;13.096;2023-05-18T05:15:14;9.20;99.90
8664;DHT22;4369;47.842;13.096;2023-05-18T05:17:41;9.20;99.90
8664;DHT22;4369;47.842;13.096;2023-05-18T05:20:09;9.20;99.90
8664;DHT22;4369;47.842;13.096;2023-05-18T05:22:36;9.10;99.90
8664;DHT22;4369;47.842;13.096;2023-05-18T05:25:05;9.20;99.90
8664;DHT22;4369;47.842;13.096;2023-05-18T05:27:32;9.40;99.90
8664;DHT22;4369;47.842;13.096;2023-05-18T05:29:59;9.40;99.90
8664;DHT22;4369;47.842;13.096;2023-05-18T05:32:25;9.50;99.90
8664;DHT22;4369;47.842;13.096;2023-05-18T05:34:52;9.60;99.90
8664;DHT22;4369;47.842;13.096;2023-05-18T05:37:19;9.70;99.90
8664;DHT22;4369;47.842;13.096;2023-05-18T05:39:46;9.70;99.90
8664;DHT22;4369;47.842;13.096;2023-05-18T05:42:15;9.80;99.90
8664;DHT22;4369;47.842;13.096;2023-05-18T05:44:41;9.90;99.90
8664;DHT22;4369;47.842;13.096;2023-05-18T05:47:08;10.00;99.90
8664;DHT22;4369;47.842;13.096;2023-05-18T05:49:35;10.00;99.90
8664;DHT22;4369;47.842;13.096;2023-05-18T05:52:02;10.10;99.90
8664;DHT22;4369;47.842;13.096;2023-05-18T05:54:29;10.10;99.90
8664;DHT22;4369;47.842;13.096;2023-05-18T05:56:56;10.20;99.90
8664;DHT22;4369;47.842;13.096;2023-05-18T05:59:24;10.30;99.90
8664;DHT22;4369;47.842;13.096;2023-05-18T06:01:51;10.40;99.90
8664;DHT22;4369;47.842;13.096;2023-05-18T06:04:18;10.50;99.90
8664;DHT22;4369;47.842;13.096;2023-05-18T06:06:46;10.50;99.90
8664;DHT22;4369;47.842;13.096;2023-05-18T06:09:13;10.50;99.90
8664;DHT22;4369;47.842;13.096;2023-05-18T06:11:41;10.60;99.90
8664;DHT22;4369;47.842;13.096;2023-05-18T06:14:08;10.60;99.90
8664;DHT22;4369;47.842;13.096;2023-05-18T06:16:36;10.60;99.90
8664;DHT22;4369;47.842;13.096;2023-05-18T06:19:03;10.50;99.90
8664;DHT22;4369;47.842;13.096;2023-05-18T06:21:29;10.60;99.90
8664;DHT22;4369;47.842;13.096;2023-05-18T06:23:57;10.80;99.90
8664;DHT22;4369;47.842;13.096;2023-05-18T06:26:25;10.90;99.90
8664;DHT22;4369;47.842;13.096;2023-05-18T06:28:52;11.00;99.90
8664;DHT22;4369;47.842;13.096;2023-05-18T06:31:19;11.10;94.80
8664;DHT22;4369;47.842;13.096;2023-05-18T06:33:47;11.10;78.40
8664;DHT22;4369;47.842;13.096;2023-05-18T06:36:14;11.20;69.40
8664;DHT22;4369;47.842;13.096;2023-05-18T06:38:41;11.20;53.50
8664;DHT22;4369;47.842;13.096;2023-05-18T06:41:08;11.10;38.80
8664;DHT22;4369;47.842;13.096;2023-05-18T06:43:35;11.10;47.20
8664;DHT22;4369;47.842;13.096;2023-05-18T06:46:02;11.30;27.80
8664;DHT22;4369;47.842;13.096;2023-05-18T06:48:29;11.20;7.40
8664;DHT22;4369;47.842;13.096;2023-05-18T06:50:57;11.10;7.90
8664;DHT22;4369;47.842;13.096;2023-05-18T06:53:24;11.20;7.40
8664;DHT22;4369;47.842;13.096;2023-05-18T06:55:51;11.10;1.00
8664;DHT22;4369;47.842;13.096;2023-05-18T06:58:19;11.30;28.50
8664;DHT22;4369;47.842;13.096;2023-05-18T07:00:46;11.30;30.30
8664;DHT22;4369;47.842;13.096;2023-05-18T07:03:13;11.40;31.00
8664;DHT22;4369;47.842;13.096;2023-05-18T07:05:41;11.50;22.60
8664;DHT22;4369;47.842;13.096;2023-05-18T07:08:10;11.50;1.00
8664;DHT22;4369;47.842;13.096;2023-05-18T07:10:36;11.70;18.80
8664;DHT22;4369;47.842;13.096;2023-05-18T07:13:03;11.70;1.00
8664;DHT22;4369;47.842;13.096;2023-05-18T07:15:30;11.60;1.00
8664;DHT22;4369;47.842;13.096;2023-05-18T07:17:57;11.60;1.00
8664;DHT22;4369;47.842;13.096;2023-05-18T07:20:24;11.80;1.00
8664;DHT22;4369;47.842;13.096;2023-05-18T07:22:51;11.90;1.00
8664;DHT22;4369;47.842;13.096;2023-05-18T07:25:21;12.00;1.00
8664;DHT22;4369;47.842;13.096;2023-05-18T07:27:47;12.00;1.00
8664;DHT22;4369;47.842;13.096;2023-05-18T07:30:16;12.10;1.00
8664;DHT22;4369;47.842;13.096;2023-05-18T07:32:43;12.10;1.00
8664;DHT22;4369;47.842;13.096;2023-05-18T07:35:10;12.20;1.00
8664;DHT22;4369;47.842;13.096;2023-05-18T07:37:37;12.30;1.00
8664;DHT22;4369;47.842;13.096;2023-05-18T07:40:05;12.40;1.00
8664;DHT22;4369;47.842;13.096;2023-05-18T07:42:36;12.40;1.00
8664;DHT22;4369;47.842;13.096;2023-05-18T07:45:04;12.30;99.90
8664;DHT22;4369;47.842;13.096;2023-05-18T07:47:31;12.30;99.90
8664;DHT22;4369;47.842;13.096;2023-05-18T07:49:58;12.40;1.00
8664;DHT22;4369;47.842;13.096;2023-05-18T07:52:25;12.60;1.00
8664;DHT22;4369;47.842;13.096;2023-05-18T07:54:54;12.60;99.90
8664;DHT22;4369;47.842;13.096;2023-05-18T07:57:21;12.70;1.00
8664;DHT22;4369;47.842;13.096;2023-05-18T07:59:50;12.80;99.90
8664;DHT22;4369;47.842;13.096;2023-05-18T08:02:17;12.70;97.80
8664;DHT22;4369;47.842;13.096;2023-05-18T08:04:45;12.50;99.90
8664;DHT22;4369;47.842;13.096;2023-05-18T08:07:12;12.80;99.90
8664;DHT22;4369;47.842;13.096;2023-05-18T08:09:39;12.90;92.40
8664;DHT22;4369;47.842;13.096;2023-05-18T08:12:07;12.80;57.00
8664;DHT22;4369;47.842;13.096;2023-05-18T08:14:34;13.00;91.80
8664;DHT22;4369;47.842;13.096;2023-05-18T08:17:04;13.30;47.90
8664;DHT22;4369;47.842;13.096;2023-05-18T08:19:30;13.40;4.90
8664;DHT22;4369;47.842;13.096;2023-05-18T08:21:57;13.50;1.00
8664;DHT22;4369;47.842;13.096;2023-05-18T08:24:24;13.50;1.00
8664;DHT22;4369;47.842;13.096;2023-05-18T08:26:51;13.20;1.00
8664;DHT22;4369;47.842;13.096;2023-05-18T08:29:18;13.50;1.00
8664;DHT22;4369;47.842;13.096;2023-05-18T08:31:45;13.50;1.00
8664;DHT22;4369;47.842;13.096;2023-05-18T08:34:13;13.50;1.00
8664;DHT22;4369;47.842;13.096;2023-05-18T08:36:40;13.60;1.00
8664;DHT22;4369;47.842;13.096;2023-05-18T08:39:10;13.70;1.00
8664;DHT22;4369;47.842;13.096;2023-05-18T08:41:41;13.70;1.00
8664;DHT22;4369;47.842;13.096;2023-05-18T08:44:14;13.70;1.00
8664;DHT22;4369;47.842;13.096;2023-05-18T08:46:44;14.00;1.00
8664;DHT22;4369;47.842;13.096;2023-05-18T08:49:16;13.90;1.00
8664;DHT22;4369;47.842;13.096;2023-05-18T08:51:45;14.00;1.00
8664;DHT22;4369;47.842;13.096;2023-05-18T08:54:17;14.10;1.00
8664;DHT22;4369;47.842;13.096;2023-05-18T08:56:46;14.20;1.00
8664;DHT22;4369;47.842;13.096;2023-05-18T08:59:23;14.30;1.00
8664;DHT22;4369;47.842;13.096;2023-05-18T09:01:51;14.50;1.00
8664;DHT22;4369;47.842;13.096;2023-05-18T09:04:21;14.50;1.00
8664;DHT22;4369;47.842;13.096;2023-05-18T09:06:50;14.80;1.00
8664;DHT22;4369;47.842;13.096;2023-05-18T09:09:21;14.80;1.00
8664;DHT22;4369;47.842;13.096;2023-05-18T09:11:49;14.90;1.00
8664;DHT22;4369;47.842;13.096;2023-05-18T09:14:16;15.00;1.00
8664;DHT22;4369;47.842;13.096;2023-05-18T09:16:43;15.00;1.00
8664;DHT22;4369;47.842;13.096;2023-05-18T09:19:10;14.90;1.00
8664;DHT22;4369;47.842;13.096;2023-05-18T09:21:38;14.70;1.00
8664;DHT22;4369;47.842;13.096;2023-05-18T09:24:05;14.60;1.00
8664;DHT22;4369;47.842;13.096;2023-05-18T09:26:32;14.70;1.00
8664;DHT22;4369;47.842;13.096;2023-05-18T09:28:59;14.70;1.00
8664;DHT22;4369;47.842;13.096;2023-05-18T09:31:26;14.70;1.00
8664;DHT22;4369;47.842;13.096;2023-05-18T09:33:57;14.80;1.00
8664;DHT22;4369;47.842;13.096;2023-05-18T09:36:26;14.80;1.00
8664;DHT22;4369;47.842;13.096;2023-05-18T09:38:56;14.90;1.00
8664;DHT22;4369;47.842;13.096;2023-05-18T09:41:25;14.70;1.00
8664;DHT22;4369;47.842;13.096;2023-05-18T09:43:53;14.80;1.00
8664;DHT22;4369;47.842;13.096;2023-05-18T09:46:20;14.90;1.00
8664;DHT22;4369;47.842;13.096;2023-05-18T09:48:50;14.80;1.00
8664;DHT22;4369;47.842;13.096;2023-05-18T09:51:17;14.50;1.00
8664;DHT22;4369;47.842;13.096;2023-05-18T09:53:47;14.40;1.00
8664;DHT22;4369;47.842;13.096;2023-05-18T09:56:16;14.30;1.00
8664;DHT22;4369;47.842;13.096;2023-05-18T09:58:44;14.00;1.00
8664;DHT22;4369;47.842;13.096;2023-05-18T10:01:11;14.10;1.00
8664;DHT22;4369;47.842;13.096;2023-05-18T10:03:38;13.90;1.00
8664;DHT22;4369;47.842;13.096;2023-05-18T10:06:07;13.90;1.00
8664;DHT22;4369;47.842;13.096;2023-05-18T10:08:35;14.10;1.00
8664;DHT22;4369;47.842;13.096;2023-05-18T10:11:02;14.20;1.00
8664;DHT22;4369;47.842;13.096;2023-05-18T10:13:31;14.20;1.00
8664;DHT22;4369;47.842;13.096;2023-05-18T10:16:00;14.30;1.00
8664;DHT22;4369;47.842;13.096;2023-05-18T10:18:29;13.80;1.00
8664;DHT22;4369;47.842;13.096;2023-05-18T10:20:57;14.00;1.00
8664;DHT22;4369;47.842;13.096;2023-05-18T10:23:26;14.20;1.00
8664;DHT22;4369;47.842;13.096;2023-05-18T10:25:53;14.30;1.00
8664;DHT22;4369;47.842;13.096;2023-05-18T10:28:21;14.30;1.00
8664;DHT22;4369;47.842;13.096;2023-05-18T10:30:55;14.30;1.00
8664;DHT22;4369;47.842;13.096;2023-05-18T10:33:24;14.50;1.00
8664;DHT22;4369;47.842;13.096;2023-05-18T10:35:52;14.60;1.00
8664;DHT22;4369;47.842;13.096;2023-05-18T10:38:20;14.60;1.00
8664;DHT22;4369;47.842;13.096;2023-05-18T10:40:49;14.80;1.00
8664;DHT22;4369;47.842;13.096;2023-05-18T10:43:18;14.70;1.00
8664;DHT22;4369;47.842;13.096;2023-05-18T10:45:47;14.70;1.00
8664;DHT22;4369;47.842;13.096;2023-05-18T10:48:16;14.70;1.00
8664;DHT22;4369;47.842;13.096;2023-05-18T10:50:47;14.90;1.00
8664;DHT22;4369;47.842;13.096;2023-05-18T10:53:16;15.00;1.00
8664;DHT22;4369;47.842;13.096;2023-05-18T10:55:44;15.20;1.00
8664;DHT22;4369;47.842;13.096;2023-05-18T10:58:13;15.40;1.00
8664;DHT22;4369;47.842;13.096;2023-05-18T11:00:43;15.70;1.00
8664;DHT22;4369;47.842;13.096;2023-05-18T11:03:15;15.80;1.00
8664;DHT22;4369;47.842;13.096;2023-05-18T11:05:42;16.00;1.00
8664;DHT22;4369;47.842;13.096;2023-05-18T11:08:09;15.90;1.00
8664;DHT22;4369;47.842;13.096;2023-05-18T11:10:41;15.80;1.00
8664;DHT22;4369;47.842;13.096;2023-05-18T11:13:09;15.60;1.00
8664;DHT22;4369;47.842;13.096;2023-05-18T11:16:02;15.30;1.00
8664;DHT22;4369;47.842;13.096;2023-05-18T11:18:37;15.10;1.00
8664;DHT22;4369;47.842;13.096;2023-05-18T11:21:20;15.10;1.00
8664;DHT22;4369;47.842;13.096;2023-05-18T11:26:53;15.60;1.00
8664;DHT22;4369;47.842;13.096;2023-05-18T11:29:23;15.70;1.00
8664;DHT22;4369;47.842;13.096;2023-05-18T11:31:51;15.80;1.00
8664;DHT22;4369;47.842;13.096;2023-05-18T11:34:43;15.80;1.00
8664;DHT22;4369;47.842;13.096;2023-05-18T11:37:12;16.10;1.00
8664;DHT22;4369;47.842;13.096;2023-05-18T11:39:39;16.30;1.00
8664;DHT22;4369;47.842;13.096;2023-05-18T11:42:08;16.40;1.00
8664;DHT22;4369;47.842;13.096;2023-05-18T11:44:35;16.10;1.00
8664;DHT22;4369;47.842;13.096;2023-05-18T11:47:06;15.80;1.00
8664;DHT22;4369;47.842;13.096;2023-05-18T11:49:37;15.80;1.00
8664;DHT22;4369;47.842;13.096;2023-05-18T11:52:16;15.50;1.00
8664;DHT22;4369;47.842;13.096;2023-05-18T11:54:45;15.40;1.00
8664;DHT22;4369;47.842;13.096;2023-05-18T11:57:13;15.20;1.00
8664;DHT22;4369;47.842;13.096;2023-05-18T11:59:43;15.00;1.00
8664;DHT22;4369;47.842;13.096;2023-05-18T12:02:12;15.00;1.00
8664;DHT22;4369;47.842;13.096;2023-05-18T12:04:45;14.90;1.00
8664;DHT22;4369;47.842;13.096;2023-05-18T12:07:14;14.90;1.00
8664;DHT22;4369;47.842;13.096;2023-05-18T12:09:43;14.90;1.00
8664;DHT22;4369;47.842;13.096;2023-05-18T12:12:12;15.00;1.00
8664;DHT22;4369;47.842;13.096;2023-05-18T12:14:42;15.10;1.00
8664;DHT22;4369;47.842;13.096;2023-05-18T12:17:10;15.20;1.00
8664;DHT22;4369;47.842;13.096;2023-05-18T12:19:40;15.30;1.00
8664;DHT22;4369;47.842;13.096;2023-05-18T12:22:08;15.30;1.00
8664;DHT22;4369;47.842;13.096;2023-05-18T12:24:36;15.40;1.00
8664;DHT22;4369;47.842;13.096;2023-05-18T12:27:07;15.50;1.00
8664;DHT22;4369;47.842;13.096;2023-05-18T12:29:37;15.70;1.00
8664;DHT22;4369;47.842;13.096;2023-05-18T12:32:08;15.70;1.00
8664;DHT22;4369;47.842;13.096;2023-05-18T12:34:35;15.60;1.00
8664;DHT22;4369;47.842;13.096;2023-05-18T12:37:03;15.50;1.00
8664;DHT22;4369;47.842;13.096;2023-05-18T12:39:30;15.30;1.00
8664;DHT22;4369;47.842;13.096;2023-05-18T12:42:19;15.30;1.00
8664;DHT22;4369;47.842;13.096;2023-05-18T12:44:47;15.30;1.00
8664;DHT22;4369;47.842;13.096;2023-05-18T12:47:15;15.30;1.00
8664;DHT22;4369;47.842;13.096;2023-05-18T12:49:47;15.40;1.00
8664;DHT22;4369;47.842;13.096;2023-05-18T12:52:15;15.50;1.00
8664;DHT22;4369;47.842;13.096;2023-05-18T12:54:53;15.50;1.00
8664;DHT22;4369;47.842;13.096;2023-05-18T12:57:26;15.40;1.00
8664;DHT22;4369;47.842;13.096;2023-05-18T12:59:56;15.50;1.00
8664;DHT22;4369;47.842;13.096;2023-05-18T13:02:31;15.50;1.00
8664;DHT22;4369;47.842;13.096;2023-05-18T13:05:02;15.40;1.00
8664;DHT22;4369;47.842;13.096;2023-05-18T13:07:30;15.40;1.00
8664;DHT22;4369;47.842;13.096;2023-05-18T13:10:04;15.60;1.00
8664;DHT22;4369;47.842;13.096;2023-05-18T13:12:43;15.60;1.00
8664;DHT22;4369;47.842;13.096;2023-05-18T13:15:12;15.40;1.00
8664;DHT22;4369;47.842;13.096;2023-05-18T13:17:57;15.10;1.00
8664;DHT22;4369;47.842;13.096;2023-05-18T13:20:30;15.10;1.00
8664;DHT22;4369;47.842;13.096;2023-05-18T13:22:58;15.20;1.00
8664;DHT22;4369;47.842;13.096;2023-05-18T13:25:25;15.20;1.00
8664;DHT22;4369;47.842;13.096;2023-05-18T13:27:53;15.30;1.00
8664;DHT22;4369;47.842;13.096;2023-05-18T13:30:20;15.50;1.00
8664;DHT22;4369;47.842;13.096;2023-05-18T13:32:48;15.40;1.00
8664;DHT22;4369;47.842;13.096;2023-05-18T13:35:15;15.30;1.00
8664;DHT22;4369;47.842;13.096;2023-05-18T13:37:43;15.20;1.00
8664;DHT22;4369;47.842;13.096;2023-05-18T13:40:11;15.20;1.00
8664;DHT22;4369;47.842;13.096;2023-05-18T13:42:39;15.10;1.00
8664;DHT22;4369;47.842;13.096;2023-05-18T13:45:08;15.00;1.00
8664;DHT22;4369;47.842;13.096;2023-05-18T13:47:35;14.80;1.00
8664;DHT22;4369;47.842;13.096;2023-05-18T13:50:03;14.70;1.00
8664;DHT22;4369;47.842;13.096;2023-05-18T13:52:30;14.60;1.00
8664;DHT22;4369;47.842;13.096;2023-05-18T13:54:56;14.60;1.00
8664;DHT22;4369;47.842;13.096;2023-05-18T13:57:23;14.50;9.10
8664;DHT22;4369;47.842;13.096;2023-05-18T13:59:51;14.50;6.30
8664;DHT22;4369;47.842;13.096;2023-05-18T14:02:19;14.30;1.00
8664;DHT22;4369;47.842;13.096;2023-05-18T14:04:46;14.30;27.50
8664;DHT22;4369;47.842;13.096;2023-05-18T14:07:13;14.10;19.50
8664;DHT22;4369;47.842;13.096;2023-05-18T14:09:40;14.00;19.00
8664;DHT22;4369;47.842;13.096;2023-05-18T14:12:07;14.00;32.80
8664;DHT22;4369;47.842;13.096;2023-05-18T14:14:35;13.80;43.20
8664;DHT22;4369;47.842;13.096;2023-05-18T14:17:02;13.70;99.90
8664;DHT22;4369;47.842;13.096;2023-05-18T14:19:30;13.70;99.90
8664;DHT22;4369;47.842;13.096;2023-05-18T14:21:57;13.50;99.90
8664;DHT22;4369;47.842;13.096;2023-05-18T14:24:24;13.40;99.90
8664;DHT22;4369;47.842;13.096;2023-05-18T14:26:51;13.40;99.90
8664;DHT22;4369;47.842;13.096;2023-05-18T14:29:19;13.50;99.90
8664;DHT22;4369;47.842;13.096;2023-05-18T14:31:46;13.40;99.90
8664;DHT22;4369;47.842;13.096;2023-05-18T14:34:13;13.40;99.90
8664;DHT22;4369;47.842;13.096;2023-05-18T14:36:41;13.40;99.90
8664;DHT22;4369;47.842;13.096;2023-05-18T14:39:08;13.40;99.90
8664;DHT22;4369;47.842;13.096;2023-05-18T14:41:35;13.40;99.90
8664;DHT22;4369;47.842;13.096;2023-05-18T14:44:02;13.50;99.90
8664;DHT22;4369;47.842;13.096;2023-05-18T14:46:29;13.50;99.90
8664;DHT22;4369;47.842;13.096;2023-05-18T14:48:56;13.50;99.90
8664;DHT22;4369;47.842;13.096;2023-05-18T14:51:23;13.60;99.90
8664;DHT22;4369;47.842;13.096;2023-05-18T14:53:51;13.50;99.90
8664;DHT22;4369;47.842;13.096;2023-05-18T14:56:18;13.50;99.90
8664;DHT22;4369;47.842;13.096;2023-05-18T14:58:45;13.40;99.90
8664;DHT22;4369;47.842;13.096;2023-05-18T15:01:12;13.40;99.90
8664;DHT22;4369;47.842;13.096;2023-05-18T15:03:38;13.40;99.90
8664;DHT22;4369;47.842;13.096;2023-05-18T15:06:05;13.40;99.90
8664;DHT22;4369;47.842;13.096;2023-05-18T15:08:32;13.40;99.90
8664;DHT22;4369;47.842;13.096;2023-05-18T15:11:01;13.40;99.90
8664;DHT22;4369;47.842;13.096;2023-05-18T15:13:27;13.40;99.90
8664;DHT22;4369;47.842;13.096;2023-05-18T15:15:54;13.30;99.90
8664;DHT22;4369;47.842;13.096;2023-05-18T15:18:22;13.10;99.90
8664;DHT22;4369;47.842;13.096;2023-05-18T15:20:49;13.10;99.90
8664;DHT22;4369;47.842;13.096;2023-05-18T15:23:15;13.20;99.90
8664;DHT22;4369;47.842;13.096;2023-05-18T15:25:42;13.10;99.90
8664;DHT22;4369;47.842;13.096;2023-05-18T15:28:11;13.10;99.90
8664;DHT22;4369;47.842;13.096;2023-05-18T15:30:38;13.10;99.90
8664;DHT22;4369;47.842;13.096;2023-05-18T15:33:05;13.10;99.90
8664;DHT22;4369;47.842;13.096;2023-05-18T15:35:31;13.00;99.90
8664;DHT22;4369;47.842;13.096;2023-05-18T15:38:00;13.10;99.90
8664;DHT22;4369;47.842;13.096;2023-05-18T15:40:28;13.00;99.90
8664;DHT22;4369;47.842;13.096;2023-05-18T15:42:55;12.90;99.90
8664;DHT22;4369;47.842;13.096;2023-05-18T15:45:23;13.00;99.90
8664;DHT22;4369;47.842;13.096;2023-05-18T15:47:50;13.10;99.90
8664;DHT22;4369;47.842;13.096;2023-05-18T15:50:17;13.20;99.90
8664;DHT22;4369;47.842;13.096;2023-05-18T15:52:44;13.00;99.90
8664;DHT22;4369;47.842;13.096;2023-05-18T15:55:10;13.00;99.90
8664;DHT22;4369;47.842;13.096;2023-05-18T15:57:38;13.10;99.90
8664;DHT22;4369;47.842;13.096;2023-05-18T16:00:06;13.10;99.90
8664;DHT22;4369;47.842;13.096;2023-05-18T16:02:34;13.20;99.90
8664;DHT22;4369;47.842;13.096;2023-05-18T16:05:01;13.20;99.90
8664;DHT22;4369;47.842;13.096;2023-05-18T16:07:28;13.20;99.90
8664;DHT22;4369;47.842;13.096;2023-05-18T16:09:55;13.20;99.90